Waimanalo, Hawaii
Current Conditions -  °F | °C
As of 7:57 AM on Monday 20 Oct 2014 (Local Time) from PHNG Reporting Station
Broken Clouds Broken Clouds  
Wind Chill: 80°   Ceiling: 3000
Heat Index: 84°   Visibility: 10mi
Dew Point: 71°   Wind: 8mph
Humidity: 74%   Direction: 90°E
Pressure: 30.01"   Gusts: 16mph
Location:  21.34°N, 157.71°W
Report Text: PHNG 201757Z 09007G14KT 10SM SCT025 BKN030 BKN035 27/22 A3001 RMK AO2 SLP157 60000 T02670217 10267 20261 53013 $
Loading
Personal Weather Stations






























Interactive Weather Map
Tropical Storm Tracking
New forecast layout! Learn more

10-Day Weather Forecast

Advertisements
Track Severe Weather on mobile